Box Elder, SD (57719)

12:33 AM MDT on August 22, 2014 (GMT -0600)
Prairie View Estates | Change Station
CLOSE
Current Station
Personal Weather Station
Location: Box Elder, SD
Elevation: 3064 ft
Nearby Weather Stations

Elev 3064 ft 44.11 °N, 103.07 °W | Updated 3 seconds ago

Overcast
Overcast
62.4 °F
Feels Like 62.4 °F
N
0.0
Wind Variable Wind from North
Gusts 0.0 mph

Today
High -- | Low -- °F
--% Chance of Precip.
Yesterday
High -- | Low -- °F
Precip. -- in
6:04 AM 7:45 PM
Waning Crescent, 10% visible
Pressure 29.93 in
Visibility 10.0 miles
Clouds Overcast 16000 ft
Dew Point 58 °F
Humidity 84%
Rainfall 0.00 in
Snow Depth Not available.
UV 0.0 out of 12
Pollen 9.70 out of 12
Air Quality Not available.
Flu Activity Not available.
METAR KRCA 220558Z AUTO 04009KT 10SM OVC160 19/16 A2999 RMK AO2 SLP135 60000 T01850162 10267 20175 50007 $

More Conditions Fewer Conditions

Pressure 29.93 in
Visibility 10.0 miles
Clouds Overcast 16000 ft
Dew Point 58 °F
Humidity 84%
Rainfall 0.00 in
Snow Depth Not available.
UV 0.0 out of 12
Pollen 9.70 out of 12
Air Quality Not available.
Flu Activity Not available.
METAR KRCA 220558Z AUTO 04009KT 10SM OVC160 19/16 A2999 RMK AO2 SLP135 60000 T01850162 10267 20175 50007 $

More Conditions Fewer Conditions

10-Day Weather Forecast

Almanac

Astronomy

Aug. 22, 2014 Rise Set
Actual Time 6:04 AM MDT 7:45 PM MDT
Civil Twilight 5:33 AM MDT 8:16 PM MDT
Nautical Twilight 4:56 AM MDT 8:53 PM MDT
Astronomical Twilight 4:15 AM MDT 9:33 PM MDT
Moon 3:25 AM MDT 5:57 PM MDT
Length of Visible Light 14h 42m
Length of Day
13h 41m
Tomorrow will be 2m 50s shorter.
Waning Crescent, 10% of the Moon is Illuminated
Today
Waning Crescent
Aug 25
New
Sep 2
First Quarter
Sep 8
Full
Sep 15
Last Quarter

Today's Extremes

State Highs State Lows

Community

WunderPhotos

Upload Photos

1,746,131 photos uploaded!

Nearby

Snow Depth

Station Depth Elevation
North Rapid Creek 0 in 6130 ft
Blind Park 0 in 6890 ft

Earthquake Activity

City Distance Mag. Time & Date
No recent earthquake activity has been reported nearby.
Minimum magnitude displayed is 2.5.

Coastal Water Temperatures

Place Temperature
No Stations Reporting

Nearby Weather Stations